createdAt,value
2019-01-27T00:05:24.125Z,-0.86
2019-01-27T00:15:25.762Z,-0.89
2019-01-27T00:25:27.382Z,-0.90
2019-01-27T00:35:28.971Z,-0.74
2019-01-27T00:45:30.394Z,-0.59
2019-01-27T00:55:31.878Z,-0.43
2019-01-27T01:05:33.617Z,-0.35
2019-01-27T01:15:35.546Z,-0.38
2019-01-27T01:25:37.373Z,-0.46
2019-01-27T01:35:39.054Z,-0.57
2019-01-27T01:45:40.589Z,-0.60
2019-01-27T01:55:42.129Z,-0.51
2019-01-27T02:05:43.636Z,-0.48
2019-01-27T02:16:00.533Z,-0.39
2019-01-27T02:26:04.013Z,-0.28
2019-01-27T02:36:05.845Z,-0.06
2019-01-27T02:46:07.269Z,0.15
2019-01-27T02:56:08.709Z,0.30
2019-01-27T03:06:12.294Z,0.43
2019-01-27T03:16:13.977Z,0.40
2019-01-27T03:26:15.557Z,0.51
2019-01-27T03:36:17.037Z,0.60
2019-01-27T03:46:18.524Z,0.65
2019-01-27T03:56:19.955Z,0.71
2019-01-27T04:06:21.437Z,0.77
2019-01-27T04:16:23.181Z,0.77
2019-01-27T04:26:24.654Z,0.79
2019-01-27T04:36:26.135Z,0.81
2019-01-27T04:46:27.597Z,0.86
2019-01-27T04:56:29.037Z,0.91
2019-01-27T05:06:30.513Z,0.99
2019-01-27T05:16:31.981Z,1.03
2019-01-27T05:26:33.484Z,1.02
2019-01-27T05:36:34.965Z,1.07
2019-01-27T05:46:36.397Z,1.08
2019-01-27T05:56:37.834Z,1.07
2019-01-27T06:06:39.320Z,1.07
2019-01-27T06:16:40.752Z,1.04
2019-01-27T06:26:42.224Z,0.93
2019-01-27T06:36:43.687Z,0.90
2019-01-27T06:46:45.185Z,0.82
2019-01-27T06:56:46.620Z,1.03
2019-01-27T07:10:06.029Z,1.48
2019-01-27T07:15:24.838Z,1.70
2019-01-27T07:20:31.405Z,1.94
2019-01-27T07:25:49.942Z,2.58
2019-01-27T07:30:56.345Z,2.97
2019-01-27T07:36:07.029Z,3.23
2019-01-27T07:41:13.218Z,2.96
2019-01-27T07:46:16.747Z,2.85
2019-01-27T07:51:36.593Z,2.98
2019-01-27T07:56:42.794Z,3.19
2019-01-27T08:01:46.135Z,3.47
2019-01-27T08:06:49.525Z,3.43
2019-01-27T08:11:55.765Z,3.95
2019-01-27T08:17:14.078Z,4.24
2019-01-27T08:22:20.640Z,4.08
2019-01-27T08:27:39.231Z,4.33
2019-01-27T08:32:45.187Z,4.99
2019-01-27T08:37:48.517Z,5.19
2019-01-27T08:42:57.753Z,5.56
2019-01-27T08:47:59.238Z,5.90
2019-01-27T08:53:00.661Z,5.63
2019-01-27T08:58:02.592Z,5.08
2019-01-27T09:03:09.240Z,5.21
2019-01-27T09:08:15.702Z,5.53
2019-01-27T09:13:22.881Z,6.21
2019-01-27T09:18:35.518Z,5.95
2019-01-27T09:23:39.153Z,5.79
2019-01-27T09:28:45.409Z,6.82
2019-01-27T09:33:51.603Z,7.44
2019-01-27T09:39:00.572Z,7.41
2019-01-27T09:44:08.453Z,6.69
2019-01-27T09:49:30.145Z,5.88
2019-01-27T09:54:33.504Z,5.35
2019-01-27T09:59:42.565Z,5.02
2019-01-27T10:04:48.853Z,4.84
2019-01-27T10:09:59.029Z,4.60
2019-01-27T10:15:14.475Z,4.55
2019-01-27T10:20:23.855Z,4.40
2019-01-27T10:25:27.229Z,4.22
2019-01-27T10:30:36.356Z,4.06
2019-01-27T10:35:53.044Z,4.07
2019-01-27T10:40:59.318Z,4.00
2019-01-27T10:46:12.173Z,4.02
2019-01-27T10:51:13.710Z,4.09
2019-01-27T10:56:19.670Z,4.19
2019-01-27T11:01:40.068Z,4.32
2019-01-27T11:06:43.532Z,4.64
2019-01-27T11:11:45.113Z,5.09
2019-01-27T11:16:48.548Z,5.30
2019-01-27T11:21:50.175Z,5.60
2019-01-27T11:27:05.584Z,6.14
2019-01-27T11:32:27.657Z,6.47
2019-01-27T11:37:31.060Z,6.63
2019-01-27T11:42:34.404Z,6.28
2019-01-27T11:47:37.737Z,6.10
2019-01-27T11:52:39.478Z,5.89
2019-01-27T11:57:40.915Z,5.75
2019-01-27T12:02:46.591Z,5.60
2019-01-27T12:07:45.851Z,5.47
2019-01-27T12:12:47.285Z,5.36
2019-01-27T12:17:48.826Z,5.34
2019-01-27T12:22:50.362Z,5.45
2019-01-27T12:27:51.933Z,5.44
2019-01-27T12:32:53.367Z,5.49
2019-01-27T12:37:54.959Z,5.54
2019-01-27T12:42:56.393Z,5.50
2019-01-27T12:47:57.829Z,5.49
2019-01-27T12:52:59.270Z,5.45
2019-01-27T12:58:00.757Z,5.41
2019-01-27T13:03:02.894Z,5.36
2019-01-27T13:08:04.672Z,5.31
2019-01-27T13:13:06.212Z,5.29
2019-01-27T13:18:07.645Z,5.28
2019-01-27T13:23:09.079Z,5.27
2019-01-27T13:28:10.796Z,5.27
2019-01-27T13:33:12.229Z,5.25
2019-01-27T13:38:13.658Z,5.24
2019-01-27T13:43:15.103Z,5.20
2019-01-27T13:48:16.693Z,5.20
2019-01-27T13:53:18.117Z,5.25
2019-01-27T13:58:19.834Z,5.27
2019-01-27T14:03:24.856Z,5.35
2019-01-27T14:08:27.212Z,5.52
2019-01-27T14:13:28.949Z,5.70
2019-01-27T14:18:32.333Z,5.87
2019-01-27T14:23:35.708Z,5.70
2019-01-27T14:28:38.901Z,5.43
2019-01-27T14:33:40.339Z,5.21
2019-01-27T14:38:42.027Z,5.08
2019-01-27T14:43:45.389Z,4.98
2019-01-27T14:48:48.827Z,4.84
2019-01-27T14:53:51.206Z,4.75
2019-01-27T14:58:54.213Z,4.70
2019-01-27T15:03:57.206Z,4.62
2019-01-27T15:08:58.804Z,4.54
2019-01-27T15:14:04.308Z,4.49
2019-01-27T15:19:05.742Z,4.41
2019-01-27T15:24:08.614Z,4.30
2019-01-27T15:29:12.081Z,4.26
2019-01-27T15:34:13.521Z,4.24
2019-01-27T15:39:16.414Z,4.17
2019-01-27T15:44:18.451Z,4.11
2019-01-27T15:49:21.193Z,4.07
2019-01-27T15:54:24.070Z,4.02
2019-01-27T15:59:28.511Z,3.99
2019-01-27T16:04:29.939Z,3.90
2019-01-27T16:09:31.530Z,3.86
2019-01-27T16:14:35.906Z,3.77
2019-01-27T16:19:39.353Z,3.66
2019-01-27T16:24:40.790Z,3.59
2019-01-27T16:29:47.101Z,3.58
2019-01-27T16:34:49.093Z,3.48
2019-01-27T16:39:50.534Z,3.36
2019-01-27T16:44:51.965Z,3.34
2019-01-27T16:49:53.413Z,3.30
2019-01-27T16:54:56.752Z,3.23
2019-01-27T17:00:00.271Z,3.15
2019-01-27T17:05:04.371Z,3.18
2019-01-27T17:10:11.613Z,3.18
2019-01-27T17:15:13.651Z,3.23
2019-01-27T17:20:18.584Z,3.11
2019-01-27T17:25:20.216Z,3.01
2019-01-27T17:30:25.289Z,2.96
2019-01-27T17:35:27.276Z,3.01
2019-01-27T17:40:28.909Z,3.07
2019-01-27T17:45:30.851Z,3.09
2019-01-27T17:50:32.390Z,3.04
2019-01-27T17:55:37.531Z,2.95
2019-01-27T18:00:57.683Z,2.99
2019-01-27T18:06:01.304Z,3.08
2019-01-27T18:11:13.764Z,3.05
2019-01-27T18:16:15.196Z,2.97
2019-01-27T18:21:16.833Z,2.97
2019-01-27T18:26:18.477Z,2.91
2019-01-27T18:31:20.191Z,2.90
2019-01-27T18:36:21.773Z,2.91
2019-01-27T18:41:23.301Z,2.97
2019-01-27T18:46:24.873Z,2.99
2019-01-27T18:51:26.410Z,2.93
2019-01-27T18:56:32.647Z,2.94
2019-01-27T19:01:36.181Z,2.90
2019-01-27T19:06:57.862Z,2.90
2019-01-27T19:12:02.394Z,2.84
2019-01-27T19:17:04.443Z,2.80
2019-01-27T19:22:24.303Z,2.75
2019-01-27T19:27:33.474Z,2.64
2019-01-27T19:32:39.757Z,2.67
2019-01-27T19:37:46.077Z,2.76
2019-01-27T19:42:55.232Z,2.81
2019-01-27T19:48:04.250Z,2.73
2019-01-27T19:53:10.515Z,2.66
2019-01-27T19:58:12.009Z,2.61
2019-01-27T20:03:15.807Z,2.62
2019-01-27T20:08:19.181Z,2.64
2019-01-27T20:13:22.513Z,2.72
2019-01-27T20:18:42.353Z,2.73
2019-01-27T20:24:03.873Z,2.73
2019-01-27T20:29:13.186Z,2.73
2019-01-27T20:34:19.617Z,2.68
2019-01-27T20:39:22.965Z,2.70
2019-01-27T20:44:28.893Z,2.74
2019-01-27T20:49:33.678Z,2.72
2019-01-27T20:54:38.027Z,2.72
2019-01-27T20:59:41.421Z,2.71
2019-01-27T21:04:47.465Z,2.63
2019-01-27T21:09:50.963Z,2.55
2019-01-27T21:14:59.942Z,2.57
2019-01-27T21:20:02.182Z,2.61
2019-01-27T21:25:09.320Z,2.64
2019-01-27T21:30:13.812Z,2.62
2019-01-27T21:35:15.285Z,2.60
2019-01-27T21:40:17.959Z,2.50
2019-01-27T21:45:19.799Z,2.45
2019-01-27T21:50:24.208Z,2.38
2019-01-27T21:55:25.640Z,2.39
2019-01-27T22:00:27.222Z,2.33
2019-01-27T22:05:28.863Z,2.30
2019-01-27T22:10:30.393Z,2.21
2019-01-27T22:15:31.846Z,2.17
2019-01-27T22:20:33.291Z,2.14
2019-01-27T22:25:34.719Z,2.07
2019-01-27T22:30:36.231Z,2.05
2019-01-27T22:35:37.664Z,2.00
2019-01-27T22:40:39.405Z,2.05
2019-01-27T22:45:40.947Z,2.08
2019-01-27T22:50:42.382Z,2.12
2019-01-27T22:55:43.855Z,2.14
2019-01-27T23:01:00.541Z,2.12
2019-01-27T23:06:04.140Z,2.13
2019-01-27T23:11:05.901Z,2.18
2019-01-27T23:16:07.441Z,2.22
2019-01-27T23:21:08.977Z,2.26
2019-01-27T23:26:10.401Z,2.31
2019-01-27T23:31:11.983Z,2.30
2019-01-27T23:36:13.477Z,2.21
2019-01-27T23:41:14.958Z,2.16
2019-01-27T23:46:16.385Z,2.16
2019-01-27T23:51:18.061Z,2.12
2019-01-27T23:56:19.595Z,2.09
